Time;durP1;ratioP1;P1;durP2;ratioP2;P2;SDS_P1;SDS_P2;PMS_P1;PMS_P2;Temp;Humidity;BMP_temperature;BMP_pressure;BME280_temperature;BME280_humidity;BME280_pressure;Samples;Min_cycle;Max_cycle;Signal;HPM_P1;HPM_P2
2023/06/18 00:01:12;;;;;;;9.65;7.50;;;;;;;;;;4908193;29;20056;-79
2023/06/18 00:03:37;;;;;;;10.35;6.78;;;;;;;;;;4927774;29;20046;-81
2023/06/18 00:06:03;;;;;;;11.77;7.25;;;;;;;;;;4901365;29;20025;-80
2023/06/18 00:08:28;;;;;;;12.20;7.65;;;;;;;;;;4913617;29;20031;-81
2023/06/18 00:10:54;;;;;;;9.45;7.20;;;;;;;;;;4920344;29;20500;-79
2023/06/18 00:13:19;;;;;;;13.52;7.78;;;;;;;;;;4907188;29;20074;-79
2023/06/18 00:15:45;;;;;;;10.90;7.10;;;;;;;;;;4930722;29;20035;-81
2023/06/18 00:18:10;;;;;;;11.98;7.45;;;;;;;;;;4904979;29;20464;-82
2023/06/18 00:20:36;;;;;;;8.98;6.88;;;;;;;;;;4916080;29;20091;-80
2023/06/18 00:23:02;;;;;;;10.77;7.40;;;;;;;;;;4926287;29;20036;-81
2023/06/18 00:25:27;;;;;;;12.07;7.90;;;;;;;;;;4926383;29;20051;-82
2023/06/18 00:27:53;;;;;;;11.63;6.88;;;;;;;;;;4916061;29;20389;-82
2023/06/18 00:30:19;;;;;;;10.57;7.20;;;;;;;;;;4904947;29;20067;-81
2023/06/18 00:32:45;;;;;;;12.60;7.03;;;;;;;;;;4883739;29;20401;-80
2023/06/18 00:35:11;;;;;;;9.77;6.93;;;;;;;;;;4910256;29;20405;-80
2023/06/18 00:37:36;;;;;;;11.93;7.93;;;;;;;;;;4908407;29;20032;-83
2023/06/18 00:40:02;;;;;;;11.23;7.07;;;;;;;;;;4913785;29;20035;-82
2023/06/18 00:42:28;;;;;;;17.20;7.90;;;;;;;;;;4899312;29;20040;-82
2023/06/18 00:44:54;;;;;;;10.73;8.10;;;;;;;;;;4912817;29;20019;-81
2023/06/18 00:47:20;;;;;;;11.65;8.13;;;;;;;;;;4894998;29;20040;-80
2023/06/18 00:49:46;;;;;;;9.45;7.15;;;;;;;;;;4915198;29;20042;-82
2023/06/18 00:52:15;;;;;;;10.82;7.78;;;;;;;;;;4921826;29;20055;-81
2023/06/18 00:54:42;;;;;;;12.45;7.40;;;;;;;;;;4915870;29;20032;-82
2023/06/18 00:57:08;;;;;;;11.32;7.80;;;;;;;;;;4895104;29;20222;-81
2023/06/18 00:59:37;;;;;;;11.38;6.82;;;;;;;;;;4926235;29;20482;-80
2023/06/18 01:02:03;;;;;;;9.85;7.15;;;;;;;;;;4920089;29;20028;-81
2023/06/18 01:04:32;;;;;;;10.15;6.78;;;;;;;;;;4889407;29;20453;-81
2023/06/18 01:06:58;;;;;;;13.27;8.35;;;;;;;;;;4903099;29;20043;-81
2023/06/18 01:09:25;;;;;;;10.10;7.25;;;;;;;;;;4897781;29;20123;-81
2023/06/18 01:11:51;;;;;;;11.52;7.45;;;;;;;;;;4907080;29;20032;-82
2023/06/18 01:14:19;;;;;;;12.13;7.88;;;;;;;;;;4917402;29;20051;-80
2023/06/18 01:16:45;;;;;;;10.90;6.68;;;;;;;;;;4923114;29;20516;-79
2023/06/18 01:19:15;;;;;;;10.70;7.53;;;;;;;;;;4910488;29;20028;-80
2023/06/18 01:21:42;;;;;;;16.27;8.88;;;;;;;;;;4920081;29;20446;-84
2023/06/18 01:24:12;;;;;;;10.07;7.35;;;;;;;;;;4914298;29;20060;-79
2023/06/18 01:26:38;;;;;;;9.77;7.60;;;;;;;;;;4950081;29;20027;-81
2023/06/18 01:29:08;;;;;;;12.05;7.38;;;;;;;;;;4911847;29;20493;-82
2023/06/18 01:31:36;;;;;;;8.85;6.93;;;;;;;;;;4925774;29;20135;-80
2023/06/18 01:34:04;;;;;;;11.85;7.20;;;;;;;;;;4877085;29;20510;-80
2023/06/18 01:36:37;;;;;;;13.75;7.30;;;;;;;;;;4904113;29;20036;-82
2023/06/18 01:39:23;;;;;;;11.10;7.43;;;;;;;;;;4932829;29;20594;-80
2023/06/18 01:41:52;;;;;;;10.18;7.43;;;;;;;;;;4922445;29;20032;-79
2023/06/18 01:44:19;;;;;;;11.23;7.53;;;;;;;;;;4917217;29;20025;-80
2023/06/18 01:46:45;;;;;;;11.18;8.25;;;;;;;;;;4914517;29;20058;-79
2023/06/18 01:49:12;;;;;;;12.52;8.32;;;;;;;;;;4904814;29;20095;-80
2023/06/18 01:51:38;;;;;;;12.30;8.20;;;;;;;;;;4924723;29;20032;-81
2023/06/18 01:54:05;;;;;;;10.93;7.97;;;;;;;;;;4933502;29;20099;-78
2023/06/18 01:56:31;;;;;;;9.98;7.63;;;;;;;;;;4919255;29;20024;-80
2023/06/18 01:58:57;;;;;;;12.77;8.05;;;;;;;;;;4911819;29;20482;-83
2023/06/18 02:01:23;;;;;;;10.48;7.57;;;;;;;;;;4900135;29;20032;-84
2023/06/18 02:03:48;;;;;;;12.00;8.70;;;;;;;;;;4913905;29;20032;-82
2023/06/18 02:06:14;;;;;;;10.82;7.57;;;;;;;;;;4901690;29;20032;-80
2023/06/18 02:08:41;;;;;;;10.50;7.90;;;;;;;;;;4904763;29;20053;-81
2023/06/18 02:11:06;;;;;;;10.85;7.95;;;;;;;;;;4910021;29;20438;-80
2023/06/18 02:13:32;;;;;;;11.25;7.60;;;;;;;;;;4928394;29;20031;-79
2023/06/18 02:15:57;;;;;;;12.02;7.47;;;;;;;;;;4903613;29;20028;-82
2023/06/18 02:18:23;;;;;;;11.65;7.70;;;;;;;;;;4932036;29;20039;-81
2023/06/18 02:20:50;;;;;;;12.45;8.07;;;;;;;;;;4905599;29;20032;-81
2023/06/18 02:23:16;;;;;;;14.05;7.72;;;;;;;;;;4893289;29;20516;-82
2023/06/18 02:25:44;;;;;;;13.18;8.18;;;;;;;;;;4912378;29;20028;-79
2023/06/18 02:28:10;;;;;;;10.63;7.82;;;;;;;;;;4902600;29;20107;-79
2023/06/18 02:30:35;;;;;;;22.58;7.85;;;;;;;;;;4913981;29;20355;-81
2023/06/18 02:33:02;;;;;;;11.48;8.38;;;;;;;;;;4915127;29;20501;-83
2023/06/18 02:35:28;;;;;;;13.90;8.30;;;;;;;;;;4910512;29;20039;-80
2023/06/18 02:37:55;;;;;;;11.40;8.45;;;;;;;;;;4902719;29;20032;-79
2023/06/18 02:40:20;;;;;;;12.45;8.68;;;;;;;;;;4914677;29;20036;-83
2023/06/18 02:42:50;;;;;;;17.95;9.40;;;;;;;;;;4904982;29;20035;-81
2023/06/18 02:45:17;;;;;;;12.02;8.35;;;;;;;;;;4908384;29;20031;-81
2023/06/18 02:47:44;;;;;;;13.73;9.30;;;;;;;;;;4912386;29;20095;-81
2023/06/18 02:50:10;;;;;;;11.55;8.63;;;;;;;;;;4900149;29;20033;-80
2023/06/18 02:52:36;;;;;;;12.48;8.20;;;;;;;;;;4897404;29;20092;-82
2023/06/18 02:55:02;;;;;;;13.05;8.70;;;;;;;;;;4906670;29;20405;-82
2023/06/18 02:57:27;;;;;;;11.23;9.25;;;;;;;;;;4891167;29;20028;-79
2023/06/18 02:59:53;;;;;;;22.08;13.90;;;;;;;;;;4897528;29;20029;-80
2023/06/18 03:02:22;;;;;;;14.10;9.65;;;;;;;;;;4929438;29;20034;-80
2023/06/18 03:04:48;;;;;;;13.45;8.57;;;;;;;;;;4889259;29;20032;-80
2023/06/18 03:07:13;;;;;;;13.02;8.90;;;;;;;;;;4908607;29;20047;-79
2023/06/18 03:09:39;;;;;;;13.90;7.63;;;;;;;;;;4911406;29;20493;-81
2023/06/18 03:12:04;;;;;;;12.65;8.93;;;;;;;;;;4902113;29;20394;-81
2023/06/18 03:14:31;;;;;;;14.32;8.52;;;;;;;;;;4898533;29;20084;-81
2023/06/18 03:16:57;;;;;;;12.65;9.68;;;;;;;;;;4921840;29;20430;-82
2023/06/18 03:19:23;;;;;;;12.65;8.70;;;;;;;;;;4907069;29;20036;-80
2023/06/18 03:21:50;;;;;;;14.93;9.00;;;;;;;;;;4912382;29;20031;-80
2023/06/18 03:24:17;;;;;;;11.43;8.35;;;;;;;;;;4902479;29;20032;-82
2023/06/18 03:26:45;;;;;;;13.67;8.93;;;;;;;;;;4912199;29;20076;-81
2023/06/18 03:29:11;;;;;;;13.93;9.30;;;;;;;;;;4907416;29;20028;-82
2023/06/18 03:31:39;;;;;;;13.43;8.75;;;;;;;;;;4905691;29;20034;-81
2023/06/18 03:34:07;;;;;;;14.20;9.55;;;;;;;;;;4899068;29;20109;-81
2023/06/18 03:36:39;;;;;;;16.77;10.60;;;;;;;;;;4918409;29;20129;-81
2023/06/18 03:39:06;;;;;;;14.70;10.13;;;;;;;;;;4931940;29;20058;-80
2023/06/18 03:41:31;;;;;;;12.75;8.90;;;;;;;;;;4908846;29;20542;-79
2023/06/18 03:43:57;;;;;;;16.17;9.38;;;;;;;;;;4931028;29;20031;-79
2023/06/18 03:46:24;;;;;;;11.10;8.43;;;;;;;;;;4902432;29;20031;-81
2023/06/18 03:48:49;;;;;;;13.85;8.90;;;;;;;;;;4912362;29;20481;-84
2023/06/18 03:51:16;;;;;;;11.63;8.55;;;;;;;;;;4912197;29;20560;-83
2023/06/18 03:53:41;;;;;;;13.15;8.65;;;;;;;;;;4909824;29;20056;-84
2023/06/18 03:56:09;;;;;;;14.85;8.82;;;;;;;;;;4909807;29;20127;-83
2023/06/18 03:58:35;;;;;;;14.38;9.23;;;;;;;;;;4902011;29;20162;-83
2023/06/18 04:01:01;;;;;;;14.38;9.80;;;;;;;;;;4909917;29;20051;-80
2023/06/18 04:03:27;;;;;;;13.30;9.23;;;;;;;;;;4910177;29;20366;-81
2023/06/18 04:05:53;;;;;;;14.77;9.15;;;;;;;;;;4908945;29;20025;-81
2023/06/18 04:08:19;;;;;;;14.23;9.07;;;;;;;;;;4916847;29;20082;-79
2023/06/18 04:10:45;;;;;;;13.57;8.85;;;;;;;;;;4907360;29;20353;-81
2023/06/18 04:13:18;;;;;;;14.57;9.95;;;;;;;;;;4921095;29;20052;-81
2023/06/18 04:15:44;;;;;;;13.77;9.43;;;;;;;;;;4907594;29;20486;-80
2023/06/18 04:18:11;;;;;;;13.43;9.50;;;;;;;;;;4917356;29;20080;-81
2023/06/18 04:20:36;;;;;;;15.02;9.68;;;;;;;;;;4901740;29;20036;-81
2023/06/18 04:23:03;;;;;;;14.27;9.75;;;;;;;;;;4920660;29;20492;-83
2023/06/18 04:25:28;;;;;;;16.70;9.40;;;;;;;;;;4894166;29;20039;-83
2023/06/18 04:27:56;;;;;;;13.07;9.65;;;;;;;;;;4917004;29;20028;-80
2023/06/18 04:30:23;;;;;;;17.33;9.00;;;;;;;;;;4906510;29;20039;-80
2023/06/18 04:32:49;;;;;;;12.40;8.60;;;;;;;;;;4915645;29;20043;-80
2023/06/18 04:35:15;;;;;;;12.27;8.77;;;;;;;;;;4912490;29;20047;-80
2023/06/18 04:37:41;;;;;;;15.23;10.13;;;;;;;;;;4925191;29;20031;-80
2023/06/18 04:40:08;;;;;;;14.82;9.68;;;;;;;;;;4917460;29;20039;-81
2023/06/18 04:42:34;;;;;;;15.50;9.57;;;;;;;;;;4922536;29;20079;-80
2023/06/18 04:44:59;;;;;;;15.77;10.20;;;;;;;;;;4912726;29;20032;-80
2023/06/18 04:47:26;;;;;;;12.52;9.23;;;;;;;;;;4896768;29;20248;-79
2023/06/18 04:49:51;;;;;;;19.65;9.88;;;;;;;;;;4906294;29;20038;-82
2023/06/18 04:52:17;;;;;;;14.60;9.60;;;;;;;;;;4916698;29;20114;-82
2023/06/18 04:54:44;;;;;;;13.73;8.88;;;;;;;;;;4891192;29;20032;-82
2023/06/18 04:57:10;;;;;;;14.88;9.35;;;;;;;;;;4911240;29;20115;-82
2023/06/18 04:59:40;;;;;;;13.13;8.82;;;;;;;;;;4913189;29;20047;-81
2023/06/18 05:02:08;;;;;;;16.65;8.70;;;;;;;;;;4875641;29;20036;-84
2023/06/18 05:04:33;;;;;;;13.27;9.60;;;;;;;;;;4916034;29;20152;-79
2023/06/18 05:06:59;;;;;;;17.17;9.43;;;;;;;;;;4908344;29;20107;-82
2023/06/18 05:09:26;;;;;;;12.27;9.48;;;;;;;;;;4933084;29;20489;-81
2023/06/18 05:11:52;;;;;;;18.80;10.02;;;;;;;;;;4889670;29;20038;-81
2023/06/18 05:14:17;;;;;;;15.13;9.52;;;;;;;;;;4900843;29;20035;-82
2023/06/18 05:16:43;;;;;;;16.48;8.88;;;;;;;;;;4922966;29;20028;-81
2023/06/18 05:19:08;;;;;;;15.18;8.90;;;;;;;;;;4910933;29;20032;-81
2023/06/18 05:21:34;;;;;;;15.02;8.48;;;;;;;;;;4912508;29;20031;-80
2023/06/18 05:23:59;;;;;;;13.00;8.27;;;;;;;;;;4889485;29;20059;-84
2023/06/18 05:26:25;;;;;;;14.10;8.57;;;;;;;;;;4948062;29;20084;-82
2023/06/18 05:28:51;;;;;;;14.05;8.70;;;;;;;;;;4928072;29;20040;-83
2023/06/18 05:31:17;;;;;;;14.93;7.85;;;;;;;;;;4923706;29;20107;-83
2023/06/18 05:33:43;;;;;;;12.45;8.45;;;;;;;;;;4916701;29;20076;-81
2023/06/18 05:36:09;;;;;;;12.65;8.25;;;;;;;;;;4923760;29;20016;-84
2023/06/18 05:38:35;;;;;;;12.80;8.32;;;;;;;;;;4931722;29;20031;-82
2023/06/18 05:41:01;;;;;;;10.15;7.45;;;;;;;;;;4917279;29;20520;-82
2023/06/18 05:43:28;;;;;;;13.77;8.88;;;;;;;;;;4912385;29;20072;-80
2023/06/18 05:45:53;;;;;;;11.20;8.50;;;;;;;;;;4904569;29;20047;-80
2023/06/18 05:48:19;;;;;;;15.23;8.40;;;;;;;;;;4915737;29;20449;-79
2023/06/18 05:50:52;;;;;;;14.50;9.13;;;;;;;;;;4923371;29;20031;-80
2023/06/18 05:53:18;;;;;;;12.13;9.30;;;;;;;;;;4909174;29;20029;-82
2023/06/18 05:55:44;;;;;;;13.98;9.65;;;;;;;;;;4913254;29;20038;-80
2023/06/18 05:58:10;;;;;;;12.07;9.25;;;;;;;;;;4903146;29;20127;-80
2023/06/18 06:00:36;;;;;;;13.10;8.93;;;;;;;;;;4882985;29;20080;-79
2023/06/18 06:03:01;;;;;;;13.93;8.80;;;;;;;;;;4912182;29;20028;-79
2023/06/18 06:05:27;;;;;;;18.02;9.18;;;;;;;;;;4915817;29;20499;-80
2023/06/18 06:07:52;;;;;;;12.00;8.20;;;;;;;;;;4917581;29;20021;-80
2023/06/18 06:10:21;;;;;;;14.82;8.43;;;;;;;;;;4915653;29;20036;-80
2023/06/18 06:12:48;;;;;;;11.05;7.40;;;;;;;;;;4905561;29;20043;-82
2023/06/18 06:15:15;;;;;;;11.82;7.88;;;;;;;;;;4912530;29;20036;-81
2023/06/18 06:17:41;;;;;;;13.32;8.60;;;;;;;;;;4877509;29;20042;-80
2023/06/18 06:20:07;;;;;;;12.30;8.15;;;;;;;;;;4933603;29;20035;-81
2023/06/18 06:22:33;;;;;;;16.98;9.45;;;;;;;;;;4918327;29;20020;-80
2023/06/18 06:24:58;;;;;;;17.88;8.75;;;;;;;;;;4914297;29;20473;-82
2023/06/18 06:27:24;;;;;;;11.68;7.90;;;;;;;;;;4908738;29;20277;-80
2023/06/18 06:29:49;;;;;;;14.85;9.13;;;;;;;;;;4913722;29;20445;-79
2023/06/18 06:32:15;;;;;;;14.50;8.20;;;;;;;;;;4902691;29;20040;-80
2023/06/18 06:34:40;;;;;;;12.98;9.27;;;;;;;;;;4914170;29;20044;-83
2023/06/18 06:37:07;;;;;;;13.38;8.82;;;;;;;;;;4909076;29;20042;-82
2023/06/18 06:39:33;;;;;;;12.18;8.07;;;;;;;;;;4916756;29;20046;-83
2023/06/18 06:41:59;;;;;;;14.10;9.00;;;;;;;;;;4875801;29;20024;-83
2023/06/18 06:44:28;;;;;;;11.48;8.98;;;;;;;;;;4906902;29;20557;-82
2023/06/18 06:47:12;;;;;;;13.98;8.38;;;;;;;;;;4927759;29;20028;-81
2023/06/18 06:50:14;;;;;;;12.38;8.25;;;;;;;;;;4829188;29;20126;-81
2023/06/18 06:52:50;;;;;;;12.13;7.93;;;;;;;;;;4917172;29;20048;-80
2023/06/18 06:55:17;;;;;;;11.82;8.15;;;;;;;;;;4918639;29;20048;-81
2023/06/18 06:57:42;;;;;;;14.13;8.27;;;;;;;;;;4922343;29;20028;-82
2023/06/18 07:00:10;;;;;;;13.35;8.07;;;;;;;;;;4909686;29;20039;-80
2023/06/18 07:02:36;;;;;;;11.15;8.02;;;;;;;;;;4915305;29;20371;-80
2023/06/18 07:05:01;;;;;;;10.27;7.25;;;;;;;;;;4906765;29;20027;-79
2023/06/18 07:07:27;;;;;;;14.20;8.23;;;;;;;;;;4906790;29;20025;-81
2023/06/18 07:09:52;;;;;;;10.07;6.35;;;;;;;;;;4903628;29;20047;-83
2023/06/18 07:12:18;;;;;;;11.25;6.78;;;;;;;;;;4931299;29;20401;-82
2023/06/18 07:14:43;;;;;;;9.70;6.57;;;;;;;;;;4918734;29;20036;-82
2023/06/18 07:17:09;;;;;;;13.75;7.68;;;;;;;;;;4927355;29;20028;-81
2023/06/18 07:19:34;;;;;;;14.05;7.78;;;;;;;;;;4911396;29;20044;-78
2023/06/18 07:22:00;;;;;;;10.32;7.00;;;;;;;;;;4903289;29;20032;-78
2023/06/18 07:24:26;;;;;;;9.80;6.28;;;;;;;;;;4922965;29;20066;-78
2023/06/18 07:26:51;;;;;;;13.48;7.35;;;;;;;;;;4930548;29;20115;-79
2023/06/18 07:29:17;;;;;;;8.88;6.43;;;;;;;;;;4908232;29;20040;-78
2023/06/18 07:31:42;;;;;;;13.27;7.82;;;;;;;;;;4904171;29;20036;-78
2023/06/18 07:34:08;;;;;;;13.23;7.35;;;;;;;;;;4930986;29;20040;-79
2023/06/18 07:36:33;;;;;;;8.90;6.60;;;;;;;;;;4919447;29;20489;-78
2023/06/18 07:38:59;;;;;;;11.65;8.05;;;;;;;;;;4894731;29;20165;-79
2023/06/18 07:41:24;;;;;;;12.77;9.02;;;;;;;;;;4923526;29;20035;-79
2023/06/18 07:43:49;;;;;;;10.93;7.70;;;;;;;;;;4929472;29;20416;-78
2023/06/18 07:46:15;;;;;;;12.70;8.18;;;;;;;;;;4901390;29;20096;-78
2023/06/18 07:48:40;;;;;;;12.10;7.13;;;;;;;;;;4929324;29;20101;-78
2023/06/18 07:51:06;;;;;;;10.23;6.25;;;;;;;;;;4923623;29;20036;-80
2023/06/18 07:53:35;;;;;;;9.82;6.72;;;;;;;;;;4905778;29;20057;-80
2023/06/18 07:56:00;;;;;;;;;;;;;;;;;;4931191;29;20428;-77
2023/06/18 07:58:26;;;;;;;10.68;6.80;;;;;;;;;;4918377;29;19962;-78
2023/06/18 08:00:51;;;;;;;9.65;6.97;;;;;;;;;;4910757;29;20054;-78
2023/06/18 08:03:17;;;;;;;12.52;6.95;;;;;;;;;;4925002;29;20031;-78
2023/06/18 08:05:42;;;;;;;9.95;6.45;;;;;;;;;;4904090;29;20107;-79
2023/06/18 08:08:08;;;;;;;11.07;7.07;;;;;;;;;;4930745;29;20062;-80
2023/06/18 08:10:33;;;;;;;10.15;6.63;;;;;;;;;;4906720;29;20500;-79
2023/06/18 08:12:59;;;;;;;9.07;6.78;;;;;;;;;;4909910;29;20115;-80
2023/06/18 08:15:25;;;;;;;13.23;7.55;;;;;;;;;;4905941;29;20116;-78
2023/06/18 08:17:52;;;;;;;13.30;7.60;;;;;;;;;;4929325;29;20034;-78
2023/06/18 08:20:17;;;;;;;11.80;6.43;;;;;;;;;;4900797;29;20055;-80
2023/06/18 08:22:43;;;;;;;13.13;7.95;;;;;;;;;;4912172;29;20478;-78
2023/06/18 08:25:08;;;;;;;10.82;7.05;;;;;;;;;;4925243;29;20137;-78
2023/06/18 08:27:34;;;;;;;9.40;6.45;;;;;;;;;;4926762;29;20031;-78
2023/06/18 08:30:00;;;;;;;10.73;7.28;;;;;;;;;;4901274;29;20051;-79
2023/06/18 08:32:25;;;;;;;9.43;6.80;;;;;;;;;;4930443;29;20114;-79
2023/06/18 08:34:52;;;;;;;11.48;7.15;;;;;;;;;;4919900;29;20047;-79
2023/06/18 08:37:17;;;;;;;11.57;7.05;;;;;;;;;;4909998;29;20489;-79
2023/06/18 08:39:43;;;;;;;10.52;6.85;;;;;;;;;;4931527;29;20047;-79
2023/06/18 08:42:09;;;;;;;10.65;6.88;;;;;;;;;;4917328;29;20024;-80
2023/06/18 08:44:34;;;;;;;11.63;7.28;;;;;;;;;;4922296;29;20024;-81
2023/06/18 08:47:01;;;;;;;10.85;6.97;;;;;;;;;;4913052;29;20040;-79
2023/06/18 08:49:27;;;;;;;11.70;7.03;;;;;;;;;;4930765;29;20119;-79
2023/06/18 08:51:53;;;;;;;10.50;6.35;;;;;;;;;;4908603;29;20485;-80
2023/06/18 08:54:19;;;;;;;10.90;7.07;;;;;;;;;;4935876;29;20031;-79
2023/06/18 08:56:46;;;;;;;13.07;6.55;;;;;;;;;;4907322;29;20515;-78
2023/06/18 08:59:12;;;;;;;14.38;6.85;;;;;;;;;;4927921;29;20040;-78
2023/06/18 09:01:38;;;;;;;14.32;6.63;;;;;;;;;;4930782;29;20575;-78
2023/06/18 09:04:04;;;;;;;9.13;6.28;;;;;;;;;;4937705;29;20034;-78
2023/06/18 09:06:30;;;;;;;10.43;6.38;;;;;;;;;;4899783;29;20497;-79
2023/06/18 09:08:58;;;;;;;12.88;6.88;;;;;;;;;;4913292;29;20051;-78
2023/06/18 09:11:23;;;;;;;9.55;5.80;;;;;;;;;;4929391;29;20030;-82
2023/06/18 09:13:49;;;;;;;8.23;5.72;;;;;;;;;;4922738;29;20036;-78
2023/06/18 09:16:14;;;;;;;8.10;5.78;;;;;;;;;;4925648;29;20070;-79
2023/06/18 09:18:40;;;;;;;10.18;6.20;;;;;;;;;;4914265;29;20032;-78
2023/06/18 09:21:06;;;;;;;8.68;6.07;;;;;;;;;;4900624;29;20602;-78
2023/06/18 09:23:32;;;;;;;7.88;5.72;;;;;;;;;;4922363;29;20601;-80
2023/06/18 09:25:58;;;;;;;9.82;6.50;;;;;;;;;;4923004;29;20115;-80
2023/06/18 09:28:24;;;;;;;7.80;5.68;;;;;;;;;;4936003;29;20093;-79
2023/06/18 09:30:53;;;;;;;12.77;6.38;;;;;;;;;;4929609;29;20123;-80
2023/06/18 09:33:32;;;;;;;9.13;5.82;;;;;;;;;;4924824;29;20052;-78
2023/06/18 09:36:05;;;;;;;14.27;6.20;;;;;;;;;;4950063;29;20064;-78
2023/06/18 09:38:40;;;;;;;9.70;5.95;;;;;;;;;;4919908;29;20031;-78
2023/06/18 09:41:11;;;;;;;9.50;5.38;;;;;;;;;;4931648;29;20478;-79
2023/06/18 09:43:38;;;;;;;9.55;5.88;;;;;;;;;;4915518;29;20501;-78
2023/06/18 09:46:04;;;;;;;11.68;5.28;;;;;;;;;;4892251;29;20477;-79
2023/06/18 09:48:31;;;;;;;9.95;5.25;;;;;;;;;;4894213;29;20035;-80
2023/06/18 09:50:56;;;;;;;8.82;5.28;;;;;;;;;;4933202;29;20133;-79
2023/06/18 09:53:22;;;;;;;7.93;5.25;;;;;;;;;;4914765;29;20188;-77
2023/06/18 09:55:48;;;;;;;8.35;5.78;;;;;;;;;;4907261;29;20028;-79
2023/06/18 09:58:14;;;;;;;6.20;4.75;;;;;;;;;;4925319;29;20032;-79
2023/06/18 10:00:40;;;;;;;9.10;5.13;;;;;;;;;;4934571;29;20088;-79
2023/06/18 10:03:08;;;;;;;7.85;5.18;;;;;;;;;;4925728;29;20091;-80
2023/06/18 10:05:34;;;;;;;7.25;4.85;;;;;;;;;;4926625;29;20058;-77
2023/06/18 10:08:01;;;;;;;8.48;5.47;;;;;;;;;;4932928;29;20027;-79
2023/06/18 10:10:27;;;;;;;9.07;5.73;;;;;;;;;;4920490;29;20028;-79
2023/06/18 10:12:55;;;;;;;8.00;5.15;;;;;;;;;;4929125;29;20043;-78
2023/06/18 10:15:22;;;;;;;10.40;5.15;;;;;;;;;;4915108;29;20079;-77
2023/06/18 10:17:51;;;;;;;8.30;5.07;;;;;;;;;;4903140;29;20098;-77
2023/06/18 10:20:17;;;;;;;9.32;5.53;;;;;;;;;;4919613;29;20525;-79
2023/06/18 10:22:48;;;;;;;7.75;5.05;;;;;;;;;;4912892;29;20111;-78
2023/06/18 10:25:16;;;;;;;8.82;5.45;;;;;;;;;;4908786;29;20028;-79
2023/06/18 10:27:42;;;;;;;8.10;5.18;;;;;;;;;;4922088;29;20024;-78
2023/06/18 10:30:08;;;;;;;7.95;5.07;;;;;;;;;;4912472;29;20102;-78
2023/06/18 10:32:34;;;;;;;10.63;5.50;;;;;;;;;;4872378;29;20122;-79
2023/06/18 10:35:02;;;;;;;9.68;5.10;;;;;;;;;;4927547;29;20565;-79
2023/06/18 10:37:30;;;;;;;9.88;5.35;;;;;;;;;;4910063;29;20494;-77
2023/06/18 10:39:56;;;;;;;9.77;4.97;;;;;;;;;;4903489;29;20047;-78
2023/06/18 10:42:22;;;;;;;10.82;5.25;;;;;;;;;;4929612;29;20460;-79
2023/06/18 10:44:48;;;;;;;8.27;5.68;;;;;;;;;;4911897;29;20040;-78
2023/06/18 10:47:20;;;;;;;8.52;5.40;;;;;;;;;;4907971;29;20032;-80
2023/06/18 10:50:01;;;;;;;6.90;4.80;;;;;;;;;;4921007;29;20036;-78
2023/06/18 10:52:29;;;;;;;6.22;4.95;;;;;;;;;;4914202;29;20054;-79
2023/06/18 10:54:55;;;;;;;8.60;5.57;;;;;;;;;;4905823;29;20122;-80
2023/06/18 10:57:28;;;;;;;8.45;5.03;;;;;;;;;;4923456;29;20036;-80
2023/06/18 10:59:55;;;;;;;8.98;4.28;;;;;;;;;;4897655;29;20110;-79
2023/06/18 11:02:35;;;;;;;6.57;3.88;;;;;;;;;;4902366;29;20040;-79
2023/06/18 11:05:01;;;;;;;9.55;4.72;;;;;;;;;;4910732;29;20032;-79
2023/06/18 11:07:27;;;;;;;8.25;3.92;;;;;;;;;;4910341;29;20118;-80
2023/06/18 11:09:58;;;;;;;6.30;4.38;;;;;;;;;;4920384;29;20032;-79
2023/06/18 11:12:27;;;;;;;6.80;4.85;;;;;;;;;;4914565;29;20456;-79
2023/06/18 11:15:11;;;;;;;7.78;4.38;;;;;;;;;;4922307;29;20087;-79
2023/06/18 11:17:37;;;;;;;7.93;5.15;;;;;;;;;;4921120;29;20090;-79
2023/06/18 11:20:04;;;;;;;7.60;4.25;;;;;;;;;;4919749;29;20493;-79
2023/06/18 11:22:30;;;;;;;8.98;4.72;;;;;;;;;;4930668;29;20481;-79
2023/06/18 11:24:59;;;;;;;10.02;5.00;;;;;;;;;;4922474;29;20036;-79
2023/06/18 11:27:25;;;;;;;8.60;4.75;;;;;;;;;;4906541;29;20028;-78
2023/06/18 11:29:55;;;;;;;5.47;4.10;;;;;;;;;;4909387;29;20036;-79
2023/06/18 11:32:20;;;;;;;9.02;4.68;;;;;;;;;;4913823;29;20028;-80
2023/06/18 11:34:46;;;;;;;6.45;4.13;;;;;;;;;;4921183;29;20602;-80
2023/06/18 11:37:11;;;;;;;7.28;4.72;;;;;;;;;;4925488;29;20044;-80
2023/06/18 11:39:38;;;;;;;5.53;4.22;;;;;;;;;;4910765;29;20070;-79
2023/06/18 11:42:11;;;;;;;8.53;4.00;;;;;;;;;;4918767;29;20092;-79
2023/06/18 11:44:44;;;;;;;8.07;4.00;;;;;;;;;;4924629;29;20039;-79
2023/06/18 11:47:10;;;;;;;7.15;4.32;;;;;;;;;;4901091;29;20090;-80
2023/06/18 11:49:36;;;;;;;6.30;4.00;;;;;;;;;;4904000;29;20091;-79
2023/06/18 11:52:02;;;;;;;5.75;3.95;;;;;;;;;;4930192;29;20059;-79
2023/06/18 11:54:28;;;;;;;6.40;4.30;;;;;;;;;;4885957;29;20082;-79
2023/06/18 11:56:55;;;;;;;5.85;4.20;;;;;;;;;;4910127;29;20032;-79
2023/06/18 11:59:21;;;;;;;5.90;3.70;;;;;;;;;;4925117;29;20032;-78
2023/06/18 12:01:46;;;;;;;7.25;3.78;;;;;;;;;;4920229;29;20087;-79
2023/06/18 12:04:12;;;;;;;4.97;3.60;;;;;;;;;;4929043;29;20203;-79
2023/06/18 12:06:37;;;;;;;8.57;4.22;;;;;;;;;;4919399;29;20031;-79
2023/06/18 12:09:12;;;;;;;6.28;4.03;;;;;;;;;;4908802;29;20119;-80
2023/06/18 12:11:49;;;;;;;6.20;4.25;;;;;;;;;;4929245;29;20032;-78
2023/06/18 12:14:20;;;;;;;6.97;4.05;;;;;;;;;;4905067;29;20115;-79
2023/06/18 12:16:50;;;;;;;5.70;3.85;;;;;;;;;;4931741;29;20032;-79
2023/06/18 12:19:16;;;;;;;7.35;4.40;;;;;;;;;;4927801;29;20075;-80
2023/06/18 12:21:42;;;;;;;9.50;4.72;;;;;;;;;;4917327;29;20411;-79
2023/06/18 12:24:08;;;;;;;7.47;4.10;;;;;;;;;;4931530;29;20035;-79
2023/06/18 12:26:33;;;;;;;7.40;4.80;;;;;;;;;;4922394;29;20020;-79
2023/06/18 12:28:59;;;;;;;7.40;4.22;;;;;;;;;;4927930;29;20494;-79
2023/06/18 12:31:25;;;;;;;4.95;3.85;;;;;;;;;;4915156;29;20040;-79
2023/06/18 12:33:50;;;;;;;6.38;3.90;;;;;;;;;;4923520;29;20445;-79
2023/06/18 12:36:16;;;;;;;5.95;4.18;;;;;;;;;;4933904;29;20055;-80
2023/06/18 12:38:48;;;;;;;9.55;4.15;;;;;;;;;;4923078;29;20073;-79
2023/06/18 12:41:25;;;;;;;6.35;4.20;;;;;;;;;;4927850;29;20051;-79
2023/06/18 12:43:54;;;;;;;5.05;3.53;;;;;;;;;;4924281;29;20036;-78
2023/06/18 12:46:23;;;;;;;6.25;4.07;;;;;;;;;;4933682;29;20028;-79
2023/06/18 12:48:50;;;;;;;6.32;3.67;;;;;;;;;;4924094;29;20064;-80
2023/06/18 12:51:15;;;;;;;5.18;3.75;;;;;;;;;;4927342;29;20124;-79
2023/06/18 12:53:41;;;;;;;5.95;3.80;;;;;;;;;;4916418;29;20091;-80
2023/06/18 12:56:17;;;;;;;5.15;3.65;;;;;;;;;;4916551;29;20031;-80
2023/06/18 12:58:43;;;;;;;7.22;4.00;;;;;;;;;;4923090;29;20042;-80
2023/06/18 13:01:09;;;;;;;6.10;4.07;;;;;;;;;;4928014;29;20111;-80
2023/06/18 13:03:35;;;;;;;5.72;3.65;;;;;;;;;;4929098;29;20035;-80
2023/06/18 13:06:00;;;;;;;5.72;4.05;;;;;;;;;;4904577;29;20028;-80
2023/06/18 13:08:26;;;;;;;5.43;3.72;;;;;;;;;;4933266;29;20039;-81
2023/06/18 13:10:52;;;;;;;4.68;3.60;;;;;;;;;;4907289;29;20484;-80
2023/06/18 13:13:18;;;;;;;5.05;3.88;;;;;;;;;;4926903;29;20058;-80
2023/06/18 13:15:44;;;;;;;4.00;3.28;;;;;;;;;;4930919;29;20031;-79
2023/06/18 13:18:10;;;;;;;6.38;4.25;;;;;;;;;;4920887;29;20040;-79
2023/06/18 13:20:36;;;;;;;5.65;4.22;;;;;;;;;;4915340;29;20041;-81
2023/06/18 13:23:01;;;;;;;7.28;4.60;;;;;;;;;;4922314;29;20035;-81
2023/06/18 13:25:27;;;;;;;4.85;3.45;;;;;;;;;;4921617;29;20047;-80
2023/06/18 13:27:53;;;;;;;5.30;3.40;;;;;;;;;;4920842;29;20055;-80
2023/06/18 13:30:19;;;;;;;6.28;3.55;;;;;;;;;;4931899;29;20091;-78
2023/06/18 13:32:45;;;;;;;5.55;3.30;;;;;;;;;;4920360;29;20059;-79
2023/06/18 13:35:11;;;;;;;5.15;3.38;;;;;;;;;;4930616;29;20040;-79
2023/06/18 13:37:37;;;;;;;4.43;3.28;;;;;;;;;;4931804;29;20115;-80
2023/06/18 13:40:03;;;;;;;4.43;3.22;;;;;;;;;;4939748;29;20067;-80
2023/06/18 13:42:29;;;;;;;6.68;5.18;;;;;;;;;;4931312;29;20030;-80
2023/06/18 13:44:57;;;;;;;6.53;3.65;;;;;;;;;;4939534;29;20048;-80
2023/06/18 13:47:22;;;;;;;6.57;3.42;;;;;;;;;;4938169;29;20036;-78
2023/06/18 13:49:48;;;;;;;5.93;4.10;;;;;;;;;;4906029;29;20518;-79
2023/06/18 13:52:14;;;;;;;5.85;3.80;;;;;;;;;;4916283;29;20035;-80
2023/06/18 13:54:39;;;;;;;5.53;3.50;;;;;;;;;;4931842;29;20032;-79
2023/06/18 13:57:05;;;;;;;9.02;4.20;;;;;;;;;;4919090;29;20513;-80
2023/06/18 13:59:30;;;;;;;5.85;3.58;;;;;;;;;;4907180;29;20482;-81
2023/06/18 14:01:58;;;;;;;4.30;3.22;;;;;;;;;;4909020;29;20028;-80
2023/06/18 14:04:24;;;;;;;5.50;3.80;;;;;;;;;;4932668;29;20107;-80
2023/06/18 14:06:50;;;;;;;5.95;3.65;;;;;;;;;;4922647;29;20036;-80
2023/06/18 14:09:16;;;;;;;6.13;3.60;;;;;;;;;;4908855;29;20084;-80
2023/06/18 14:11:41;;;;;;;6.28;3.40;;;;;;;;;;4929335;29;20032;-80
2023/06/18 14:14:07;;;;;;;5.25;3.35;;;;;;;;;;4919688;29;20493;-80
2023/06/18 14:16:32;;;;;;;7.65;3.42;;;;;;;;;;4914385;29;20074;-80
2023/06/18 14:18:58;;;;;;;5.50;3.80;;;;;;;;;;4923473;29;20082;-80
2023/06/18 14:21:23;;;;;;;4.25;3.55;;;;;;;;;;4924593;29;20024;-81
2023/06/18 14:23:50;;;;;;;5.70;3.65;;;;;;;;;;4930133;29;20027;-80
2023/06/18 14:26:16;;;;;;;4.57;3.45;;;;;;;;;;4919542;29;20058;-80
2023/06/18 14:28:41;;;;;;;4.72;3.65;;;;;;;;;;4913255;29;20398;-81
2023/06/18 14:31:06;;;;;;;5.75;3.10;;;;;;;;;;4882599;29;20122;-80
2023/06/18 14:33:32;;;;;;;4.72;3.45;;;;;;;;;;4923010;29;20035;-80